Time;durP1;ratioP1;P1;durP2;ratioP2;P2;SDS_P1;SDS_P2;PMS_P1;PMS_P2;Temp;Humidity;BMP_temperature;BMP_pressure;BME280_temperature;BME280_humidity;BME280_pressure;Samples;Min_cycle;Max_cycle;Signal;HPM_P1;HPM_P2
2023/04/18 00:00:38;;;;;;;2.93;1.40;;;;;;;10.07;94.96;100223.13;1459564;89;21547;-78
2023/04/18 00:03:04;;;;;;;1.73;1.27;;;;;;;10.06;95.02;100217.52;1464584;89;21613;-78
2023/04/18 00:05:30;;;;;;;2.53;1.60;;;;;;;10.05;94.94;100219.34;1459823;89;21524;-77
2023/04/18 00:07:56;;;;;;;2.20;1.53;;;;;;;10.04;94.97;100212.39;1463065;89;22478;-78
2023/04/18 00:10:23;;;;;;;4.20;1.40;;;;;;;10.02;94.78;100212.20;1459771;89;21421;-78
2023/04/18 00:12:50;;;;;;;2.13;1.70;;;;;;;10.04;94.95;100218.14;1462446;89;21510;-80
2023/04/18 00:15:17;;;;;;;2.10;1.77;;;;;;;10.06;94.42;100220.16;1461185;89;21399;-80
2023/04/18 00:17:43;;;;;;;2.20;1.20;;;;;;;10.04;94.54;100211.54;1463706;89;21605;-80
2023/04/18 00:20:10;;;;;;;1.90;1.60;;;;;;;10.05;94.49;100219.34;1462414;89;21458;-80
2023/04/18 00:22:41;;;;;;;2.10;1.33;;;;;;;10.05;94.38;100211.41;1462812;89;21421;-79
2023/04/18 00:25:09;;;;;;;3.80;1.63;;;;;;;10.06;94.11;100221.48;1457368;89;21637;-80
2023/04/18 00:27:38;;;;;;;1.33;1.23;;;;;;;10.04;94.49;100222.11;1464131;89;22220;-80
2023/04/18 00:30:07;;;;;;;1.93;1.50;;;;;;;10.06;94.53;100224.13;1435835;89;21472;-80
2023/04/18 00:32:33;;;;;;;2.30;1.63;;;;;;;10.07;94.73;100229.75;1461323;89;22418;-80
2023/04/18 00:35:01;;;;;;;1.93;1.40;;;;;;;10.07;94.66;100221.81;1444708;89;21480;-80
2023/04/18 00:37:28;;;;;;;2.00;1.60;;;;;;;10.08;94.53;100227.47;1443549;89;21355;-79
2023/04/18 00:39:54;;;;;;;2.67;1.83;;;;;;;10.07;94.78;100224.45;1466012;89;21405;-79
2023/04/18 00:42:23;;;;;;;3.20;1.73;;;;;;;10.06;94.75;100224.95;1460665;89;21539;-79
2023/04/18 00:44:49;;;;;;;3.63;1.53;;;;;;;10.06;94.46;100224.95;1463068;89;22241;-80
2023/04/18 00:47:18;;;;;;;3.43;1.93;;;;;;;10.06;94.22;100224.95;1445672;89;21406;-79
2023/04/18 00:49:46;;;;;;;2.67;1.90;;;;;;;10.07;94.22;100233.25;1458047;89;21385;-80
2023/04/18 00:52:13;;;;;;;2.07;1.70;;;;;;;10.04;94.01;100228.72;1465604;89;21451;-80
2023/04/18 00:54:43;;;;;;;3.13;1.80;;;;;;;10.02;94.01;100226.74;1463007;89;21488;-80
2023/04/18 00:57:11;;;;;;;2.37;1.80;;;;;;;10.00;94.19;100226.05;1459274;89;22302;-80
2023/04/18 00:59:37;;;;;;;2.57;2.00;;;;;;;9.97;94.46;100226.34;1469255;89;21376;-80
2023/04/18 01:02:04;;;;;;;2.20;1.70;;;;;;;9.96;94.23;100222.05;1462076;89;22338;-80
2023/04/18 01:04:31;;;;;;;2.53;1.83;;;;;;;9.97;94.08;100223.70;1461877;89;21429;-80
2023/04/18 01:06:58;;;;;;;4.37;1.57;;;;;;;9.93;94.11;100222.69;1467421;89;22886;-80
2023/04/18 01:09:25;;;;;;;3.17;1.83;;;;;;;9.91;94.12;100223.31;1464166;89;21503;-80
2023/04/18 01:11:51;;;;;;;2.33;1.80;;;;;;;9.92;94.14;100221.00;1447052;89;21392;-80
2023/04/18 01:14:19;;;;;;;1.80;1.47;;;;;;;9.92;93.97;100224.97;1456552;89;22068;-80
2023/04/18 01:16:47;;;;;;;2.10;1.57;;;;;;;9.87;94.25;100220.63;1445760;89;21392;-80
2023/04/18 01:19:19;;;;;;;7.63;1.40;;;;;;;9.84;94.40;100220.94;1460220;89;22381;-79
2023/04/18 01:21:43;;;;;;;2.97;1.57;;;;;;;9.80;94.26;100222.19;1461201;89;21421;-80
2023/04/18 01:24:13;;;;;;;2.07;1.87;;;;;;;9.80;94.10;100223.51;1464423;89;21332;-81
2023/04/18 01:26:42;;;;;;;2.90;2.10;;;;;;;9.76;94.08;100224.80;1460384;89;21584;-81
2023/04/18 01:29:09;;;;;;;3.57;1.90;;;;;;;9.70;94.57;100220.10;1465787;89;21318;-81
2023/04/18 01:31:37;;;;;;;3.27;1.90;;;;;;;9.63;94.83;100221.66;1463847;88;22272;-81
2023/04/18 01:34:04;;;;;;;2.30;1.80;;;;;;;9.62;94.37;100218.68;1448745;89;21636;-82
2023/04/18 01:36:31;;;;;;;3.30;1.93;;;;;;;9.56;94.87;100220.09;1460024;89;22345;-80
2023/04/18 01:38:59;;;;;;;2.80;1.97;;;;;;;9.48;95.73;100223.95;1460881;89;21318;-81
2023/04/18 01:41:27;;;;;;;5.37;2.90;;;;;;;9.46;95.53;100222.76;1465324;88;21525;-81
2023/04/18 01:43:53;;;;;;;3.23;1.90;;;;;;;9.41;95.94;100223.70;1438290;89;22456;-81
2023/04/18 01:46:20;;;;;;;14.23;3.40;;;;;;;9.35;96.30;100216.36;1437501;89;21414;-81
2023/04/18 01:48:46;;;;;;;2.37;2.00;;;;;;;9.30;96.79;100219.92;1460363;89;21437;-81
2023/04/18 01:51:12;;;;;;;3.90;2.23;;;;;;;9.26;97.03;100225.12;1469127;89;22480;-81
2023/04/18 01:53:39;;;;;;;3.07;1.63;;;;;;;9.24;96.71;100225.29;1446187;89;21488;-80
2023/04/18 01:56:05;;;;;;;1.73;1.60;;;;;;;9.21;96.69;100224.75;1465503;89;21987;-78
2023/04/18 01:58:32;;;;;;;2.17;1.63;;;;;;;9.19;96.80;100229.33;1462357;89;21458;-78
2023/04/18 02:00:58;;;;;;;3.13;1.97;;;;;;;9.15;97.73;100229.26;1459399;89;21600;-77
2023/04/18 02:03:24;;;;;;;3.57;2.00;;;;;;;9.13;97.54;100228.09;1460972;89;21421;-79
2023/04/18 02:05:51;;;;;;;3.43;1.20;;;;;;;9.09;98.27;100225.88;1464123;89;21546;-79
2023/04/18 02:08:17;;;;;;;2.00;1.80;;;;;;;9.06;98.69;100218.24;1443829;89;21495;-78
2023/04/18 02:10:44;;;;;;;1.90;1.50;;;;;;;9.05;98.67;100222.70;1468748;89;22360;-78
2023/04/18 02:13:10;;;;;;;2.10;1.80;;;;;;;9.06;98.38;100224.84;1463339;89;21418;-79
2023/04/18 02:15:36;;;;;;;2.20;1.40;;;;;;;9.02;98.55;100221.66;1455702;89;21355;-79
2023/04/18 02:18:03;;;;;;;5.13;1.60;;;;;;;9.01;98.49;100227.44;1455006;89;21594;-80
2023/04/18 02:20:30;;;;;;;1.80;1.50;;;;;;;8.96;98.78;100227.02;1462875;89;22220;-80
2023/04/18 02:22:57;;;;;;;15.97;3.60;;;;;;;8.96;98.48;100228.34;1462128;89;21555;-80
2023/04/18 02:25:26;;;;;;;1.80;1.40;;;;;;;8.93;98.61;100231.27;1463096;89;21422;-80
2023/04/18 02:27:53;;;;;;;2.67;2.13;;;;;;;8.88;99.16;100226.89;1459735;89;21421;-80
2023/04/18 02:30:19;;;;;;;1.87;1.50;;;;;;;8.88;98.90;100224.25;1461118;89;21532;-80
2023/04/18 02:32:46;;;;;;;4.03;1.63;;;;;;;8.86;99.15;100230.64;1461239;89;22456;-78
2023/04/18 02:35:12;;;;;;;1.90;1.60;;;;;;;8.85;99.00;100229.81;1460540;89;21421;-78
2023/04/18 02:37:38;;;;;;;3.13;1.80;;;;;;;8.81;99.12;100229.27;1441434;89;21443;-78
2023/04/18 02:40:07;;;;;;;3.33;1.80;;;;;;;8.80;98.71;100225.44;1457810;89;22767;-77
2023/04/18 02:42:33;;;;;;;2.67;1.83;;;;;;;8.75;99.11;100227.69;1464660;89;21487;-78
2023/04/18 02:45:00;;;;;;;3.80;1.70;;;;;;;8.77;97.98;100226.55;1462177;89;21377;-78
2023/04/18 02:47:26;;;;;;;1.70;1.60;;;;;;;8.77;98.17;100229.69;1471934;89;21422;-78
2023/04/18 02:49:52;;;;;;;2.63;1.80;;;;;;;8.76;97.80;100230.67;1462662;89;21436;-78
2023/04/18 02:52:18;;;;;;;2.23;1.60;;;;;;;8.73;97.85;100230.95;1459983;89;21547;-78
2023/04/18 02:54:44;;;;;;;1.73;1.20;;;;;;;8.69;98.10;100230.41;1444580;89;21517;-78
2023/04/18 02:57:11;;;;;;;1.90;1.20;;;;;;;8.67;98.44;100232.83;1458879;89;22235;-79
2023/04/18 02:59:37;;;;;;;1.30;1.07;;;;;;;8.65;98.43;100232.95;1464353;89;22405;-78
2023/04/18 03:02:03;;;;;;;2.10;1.60;;;;;;;8.63;98.90;100237.56;1464902;89;21414;-78
2023/04/18 03:04:29;;;;;;;1.60;1.50;;;;;;;8.63;98.39;100237.56;1460973;89;21598;-78
2023/04/18 03:06:57;;;;;;;1.47;1.20;;;;;;;8.65;98.22;100229.50;1459942;89;21382;-78
2023/04/18 03:09:24;;;;;;;2.17;1.40;;;;;;;8.66;97.87;100235.97;1458104;88;21407;-78
2023/04/18 03:11:50;;;;;;;1.77;1.50;;;;;;;8.66;98.03;100234.64;1459464;89;21295;-78
2023/04/18 03:14:17;;;;;;;2.43;1.50;;;;;;;8.66;98.61;100232.47;1444410;89;21436;-79
2023/04/18 03:16:43;;;;;;;3.17;1.90;;;;;;;8.63;98.79;100234.06;1459974;89;21464;-79
2023/04/18 03:19:09;;;;;;;1.37;1.27;;;;;;;8.61;98.70;100236.86;1449291;89;21384;-80
2023/04/18 03:21:36;;;;;;;3.40;1.47;;;;;;;8.61;98.90;100228.13;1459878;89;21414;-80
2023/04/18 03:24:02;;;;;;;1.23;0.93;;;;;;;8.63;98.90;100230.11;1467361;89;21421;-79
2023/04/18 03:26:28;;;;;;;2.90;1.43;;;;;;;8.64;99.14;100236.58;1463324;89;22431;-80
2023/04/18 03:28:55;;;;;;;2.33;1.73;;;;;;;8.67;98.84;100231.52;1463677;88;22213;-78
2023/04/18 03:31:21;;;;;;;5.03;1.87;;;;;;;8.69;98.63;100241.42;1461482;89;21339;-82
2023/04/18 03:33:47;;;;;;;1.40;1.13;;;;;;;8.65;99.22;100230.32;1462176;89;21406;-82
2023/04/18 03:36:18;;;;;;;4.57;1.53;;;;;;;8.68;98.90;100238.45;1456586;89;21473;-80
2023/04/18 03:38:44;;;;;;;2.05;1.55;;;;;;;8.68;98.94;100234.48;1464202;89;21333;-80
2023/04/18 03:41:10;;;;;;;1.73;1.20;;;;;;;8.72;98.54;100239.85;1442438;89;22323;-80
2023/04/18 03:43:36;;;;;;;2.67;1.27;;;;;;;8.72;98.70;100238.04;1439878;89;22092;-80
2023/04/18 03:46:03;;;;;;;4.40;1.53;;;;;;;8.77;98.41;100242.38;1425755;90;21524;-80
2023/04/18 03:48:34;;;;;;;3.17;1.50;;;;;;;8.80;98.03;100245.23;1447888;90;21399;-80
2023/04/18 03:50:58;;;;;;;1.50;1.30;;;;;;;8.83;97.72;100238.35;1428867;90;22524;-80
2023/04/18 03:53:24;;;;;;;1.90;1.30;;;;;;;8.83;97.84;100247.59;1428094;90;21422;-80
2023/04/18 03:55:50;;;;;;;2.30;1.10;;;;;;;8.83;97.74;100242.31;1449682;90;21385;-80
2023/04/18 03:58:16;;;;;;;1.87;1.03;;;;;;;8.84;97.71;100249.27;1450607;90;22459;-79
2023/04/18 04:00:43;;;;;;;2.67;1.60;;;;;;;8.87;97.54;100245.52;1437734;90;21423;-81
2023/04/18 04:03:09;;;;;;;5.17;1.53;;;;;;;8.90;97.75;100250.52;1446848;90;21401;-80
2023/04/18 04:05:35;;;;;;;1.77;1.20;;;;;;;8.94;97.51;100249.25;1451503;90;21364;-81
2023/04/18 04:08:02;;;;;;;1.63;1.10;;;;;;;9.00;97.34;100248.68;1451449;90;22326;-81
2023/04/18 04:10:28;;;;;;;8.43;1.57;;;;;;;9.07;97.00;100252.92;1447371;89;21506;-80
2023/04/18 04:12:54;;;;;;;5.13;2.00;;;;;;;9.12;96.65;100247.56;1432300;90;21386;-80
2023/04/18 04:15:20;;;;;;;5.23;2.07;;;;;;;9.18;96.43;100250.13;1438843;89;22288;-80
2023/04/18 04:17:46;;;;;;;4.57;2.77;;;;;;;9.24;96.19;100257.47;1441145;90;21511;-79
2023/04/18 04:20:13;;;;;;;5.10;2.80;;;;;;;9.30;95.79;100255.58;1446146;89;21356;-79
2023/04/18 04:22:39;;;;;;;4.03;2.40;;;;;;;9.37;95.38;100260.61;1428031;90;22214;-79
2023/04/18 04:25:07;;;;;;;6.53;3.10;;;;;;;9.42;94.33;100261.52;1451492;90;21363;-79
2023/04/18 04:27:35;;;;;;;6.70;3.00;;;;;;;9.47;94.08;100263.24;1443745;90;21415;-79
2023/04/18 04:30:01;;;;;;;5.73;3.20;;;;;;;9.51;93.74;100268.56;1444216;90;21518;-78
2023/04/18 04:32:27;;;;;;;6.90;3.67;;;;;;;9.52;93.22;100266.75;1440759;90;21562;-79
2023/04/18 04:34:55;;;;;;;4.57;3.30;;;;;;;9.54;92.85;100268.77;1449884;90;21430;-81
2023/04/18 04:37:21;;;;;;;7.67;3.90;;;;;;;9.52;92.09;100273.36;1440673;90;21522;-79
2023/04/18 04:39:47;;;;;;;7.57;3.27;;;;;;;9.54;92.24;100278.02;1431869;90;21364;-79
2023/04/18 04:42:14;;;;;;;6.37;3.03;;;;;;;9.57;91.94;100281.69;1429446;89;21525;-80
2023/04/18 04:44:41;;;;;;;4.07;2.57;;;;;;;9.60;91.93;100278.27;1456371;89;22406;-78
2023/04/18 04:47:07;;;;;;;2.87;2.30;;;;;;;9.60;91.20;100284.87;1457368;89;21355;-79
2023/04/18 04:49:34;;;;;;;5.17;1.93;;;;;;;9.62;91.15;100288.70;1458261;89;21399;-78
2023/04/18 04:52:01;;;;;;;2.17;1.40;;;;;;;9.60;90.54;100290.15;1453805;89;21399;-79
2023/04/18 04:54:27;;;;;;;5.93;2.47;;;;;;;9.60;90.19;100288.83;1434601;89;22257;-80
2023/04/18 04:56:54;;;;;;;3.97;2.47;;;;;;;9.61;89.80;100296.27;1459783;89;21577;-79
2023/04/18 04:59:20;;;;;;;7.40;4.07;;;;;;;9.60;89.53;100291.97;1455424;89;21512;-79
2023/04/18 05:01:46;;;;;;;11.30;6.40;;;;;;;9.63;89.29;100293.83;1461883;89;21483;-80
2023/04/18 05:04:12;;;;;;;13.70;5.77;;;;;;;9.64;88.90;100297.33;1456193;89;21400;-80
2023/04/18 05:06:38;;;;;;;11.27;5.27;;;;;;;9.64;88.41;100305.25;1452576;89;21393;-80
2023/04/18 05:09:05;;;;;;;13.07;5.20;;;;;;;9.68;88.72;100306.13;1441036;89;21517;-81
2023/04/18 05:11:31;;;;;;;9.07;3.47;;;;;;;9.70;88.86;100311.27;1457972;89;21401;-79
2023/04/18 05:13:57;;;;;;;7.00;3.30;;;;;;;9.73;88.31;100315.45;1455122;89;21488;-79
2023/04/18 05:16:24;;;;;;;5.83;3.13;;;;;;;9.75;88.17;100310.83;1438252;89;21384;-84
2023/04/18 05:18:50;;;;;;;8.30;2.40;;;;;;;9.79;88.27;100319.66;1454221;89;21333;-80
2023/04/18 05:21:16;;;;;;;2.77;1.60;;;;;;;9.84;87.78;100320.05;1456188;89;21496;-80
2023/04/18 05:27:45;;;;;;;10.70;1.98;;;;;;;9.97;87.54;100318.88;1454633;89;21546;-81
2023/04/18 05:30:12;;;;;;;4.87;1.90;;;;;;;10.07;86.98;100324.94;1459083;89;22376;-80
2023/04/18 05:32:38;;;;;;;6.77;2.13;;;;;;;10.10;86.30;100324.67;1455941;89;21385;-80
2023/04/18 05:35:06;;;;;;;2.27;1.90;;;;;;;10.15;86.61;100329.01;1456649;89;21488;-80
2023/04/18 05:37:35;;;;;;;5.63;1.93;;;;;;;10.17;85.93;100325.23;1446731;89;21952;-80
2023/04/18 05:40:05;;;;;;;5.97;1.60;;;;;;;10.22;85.94;100328.78;1441538;89;21393;-80
2023/04/18 05:49:51;;;;;;;5.27;2.00;;;;;;;10.66;85.50;100328.11;1445048;90;23208;-81
2023/04/18 05:52:17;;;;;;;3.90;2.17;;;;;;;10.88;84.37;100337.43;1447333;89;21364;-81
2023/04/18 05:54:43;;;;;;;3.60;2.30;;;;;;;11.00;83.12;100337.53;1447666;90;22532;-81
2023/04/18 05:57:09;;;;;;;3.63;1.97;;;;;;;11.20;83.26;100340.34;1438626;89;21326;-81
2023/04/18 05:59:35;;;;;;;5.10;1.70;;;;;;;11.35;81.26;100343.27;1449396;89;21518;-81
2023/04/18 06:02:01;;;;;;;4.03;2.23;;;;;;;11.45;79.14;100339.18;1444925;90;22749;-81
2023/04/18 06:04:28;;;;;;;3.60;1.90;;;;;;;11.61;79.70;100348.57;1440061;90;21599;-81
2023/04/18 06:06:54;;;;;;;2.80;1.60;;;;;;;11.75;79.97;100347.17;1442881;90;21408;-81
2023/04/18 06:09:20;;;;;;;4.27;2.33;;;;;;;11.85;78.34;100344.39;1454587;90;21542;-81
2023/04/18 06:11:46;;;;;;;10.30;2.53;;;;;;;11.95;78.75;100343.83;1443208;90;21400;-81
2023/04/18 06:14:13;;;;;;;3.23;1.77;;;;;;;12.06;78.21;100347.53;1446090;90;22294;-81
2023/04/18 06:16:39;;;;;;;3.70;1.67;;;;;;;12.15;77.88;100349.22;1443317;89;21298;-81
2023/04/18 06:19:05;;;;;;;4.10;2.30;;;;;;;12.25;77.40;100345.09;1445157;90;21333;-81
2023/04/18 06:21:32;;;;;;;6.30;1.80;;;;;;;12.36;76.95;100343.98;1446038;90;22472;-81
2023/04/18 06:24:00;;;;;;;4.03;1.33;;;;;;;12.41;75.24;100353.62;1449169;89;21385;-81
2023/04/18 06:26:26;;;;;;;5.23;2.07;;;;;;;12.51;75.07;100348.99;1443552;89;21445;-81
2023/04/18 06:28:53;;;;;;;3.70;1.90;;;;;;;12.59;75.06;100343.70;1444984;90;21622;-82
2023/04/18 06:31:20;;;;;;;5.17;2.03;;;;;;;12.65;74.53;100343.05;1448232;90;22310;-82
2023/04/18 06:33:46;;;;;;;8.63;2.00;;;;;;;12.73;74.50;100342.75;1442833;90;21533;-82
2023/04/18 06:36:12;;;;;;;3.00;1.53;;;;;;;12.79;72.41;100346.08;1444502;90;21430;-82
2023/04/18 06:38:38;;;;;;;3.20;2.03;;;;;;;12.80;72.03;100349.05;1451832;89;22180;-82
2023/04/18 06:41:04;;;;;;;4.33;2.70;;;;;;;12.84;71.38;100342.44;1445375;90;22207;-82
2023/04/18 06:43:31;;;;;;;16.90;8.20;;;;;;;13.02;69.96;100344.43;1440242;90;21467;-82
2023/04/18 06:45:58;;;;;;;6.13;3.77;;;;;;;13.25;71.96;100341.12;1441784;89;21541;-81
2023/04/18 06:48:24;;;;;;;5.20;2.30;;;;;;;13.42;69.06;100342.79;1443294;90;22296;-82
2023/04/18 06:50:50;;;;;;;2.17;1.83;;;;;;;13.60;66.77;100344.42;1441260;90;22279;-82
2023/04/18 06:53:16;;;;;;;6.13;2.20;;;;;;;13.85;68.04;100345.20;1429845;90;21415;-81
2023/04/18 06:55:43;;;;;;;6.10;3.27;;;;;;;14.06;63.15;100345.45;1432904;90;21488;-81
2023/04/18 06:58:12;;;;;;;4.90;1.90;;;;;;;14.30;65.29;100347.20;1447295;90;21756;-81
2023/04/18 07:04:56;;;;;;;3.90;2.10;;;;;;;14.79;65.15;100352.28;1528239;89;21402;-79
2023/04/18 07:07:22;;;;;;;3.10;2.10;;;;;;;15.09;62.97;100353.72;1372745;89;21246;-81
2023/04/18 07:09:51;;;;;;;5.53;2.30;;;;;;;15.12;62.84;100353.36;1433352;90;21485;-82
2023/04/18 07:12:17;;;;;;;5.40;2.73;;;;;;;15.20;61.31;100362.63;1432947;90;21518;-81
2023/04/18 07:14:44;;;;;;;5.00;2.40;;;;;;;15.43;62.09;100360.44;1440050;90;21400;-81
2023/04/18 07:17:10;;;;;;;2.80;2.03;;;;;;;15.64;60.85;100367.22;1446110;89;21364;-82
2023/04/18 07:19:36;;;;;;;9.13;2.30;;;;;;;15.67;57.99;100362.85;1430656;90;21459;-80
2023/04/18 07:22:02;;;;;;;4.30;1.90;;;;;;;15.71;57.20;100363.38;1442484;90;21386;-81
2023/04/18 07:24:29;;;;;;;9.07;2.13;;;;;;;15.83;58.81;100365.91;1444671;89;22980;-82
2023/04/18 07:26:56;;;;;;;3.37;2.10;;;;;;;15.85;56.74;100367.03;1447175;90;21326;-81
2023/04/18 07:29:22;;;;;;;3.67;2.07;;;;;;;15.91;58.12;100367.16;1445728;90;21483;-82
2023/04/18 07:31:49;;;;;;;5.23;2.60;;;;;;;15.87;55.38;100369.02;1438623;89;21534;-82
2023/04/18 07:34:15;;;;;;;4.27;1.53;;;;;;;15.82;56.54;100368.23;1444948;90;21422;-81
2023/04/18 07:36:41;;;;;;;7.23;1.90;;;;;;;15.72;56.40;100371.17;1448610;89;21526;-82
2023/04/18 07:39:08;;;;;;;3.17;1.83;;;;;;;15.65;56.34;100366.70;1446595;89;21452;-80
2023/04/18 07:41:34;;;;;;;3.73;2.00;;;;;;;15.55;54.17;100370.98;1449645;90;22446;-81
2023/04/18 07:44:01;;;;;;;5.10;2.43;;;;;;;15.41;52.34;100374.45;1444869;89;21312;-81
2023/04/18 07:46:28;;;;;;;4.20;1.60;;;;;;;15.34;54.17;100373.02;1432738;90;21562;-82
2023/04/18 07:48:54;;;;;;;4.00;2.10;;;;;;;15.29;53.66;100365.54;1443999;90;21452;-81
2023/04/18 07:51:24;;;;;;;3.43;2.27;;;;;;;15.34;53.55;100369.84;1429697;90;22192;-81
2023/04/18 07:53:50;;;;;;;9.87;2.27;;;;;;;15.45;53.44;100373.06;1442683;89;21533;-82
2023/04/18 07:56:16;;;;;;;5.40;2.13;;;;;;;15.68;53.83;100366.37;1444732;90;22480;-82
2023/04/18 07:58:42;;;;;;;4.53;2.43;;;;;;;15.99;54.32;100365.70;1446457;90;21385;-82
2023/04/18 08:01:12;;;;;;;11.60;2.83;;;;;;;16.29;51.94;100363.54;1440167;89;21541;-82
2023/04/18 08:03:37;;;;;;;2.60;2.10;;;;;;;16.59;52.32;100366.97;1448457;89;21481;-82
2023/04/18 08:06:04;;;;;;;4.63;2.07;;;;;;;16.87;51.24;100361.76;1442125;90;21445;-82
2023/04/18 08:08:31;;;;;;;4.97;2.23;;;;;;;17.09;46.68;100362.08;1447138;89;21527;-82
2023/04/18 08:10:57;;;;;;;5.53;1.90;;;;;;;17.27;46.85;100362.95;1435388;90;21960;-83
2023/04/18 08:13:23;;;;;;;8.73;2.40;;;;;;;17.42;44.96;100354.84;1449389;89;22302;-81
2023/04/18 08:15:49;;;;;;;5.90;1.80;;;;;;;17.62;44.02;100359.00;1450869;90;21555;-82
2023/04/18 08:18:16;;;;;;;3.80;2.10;;;;;;;17.71;43.40;100359.67;1436402;90;21490;-82
2023/04/18 08:20:42;;;;;;;4.65;1.95;;;;;;;17.84;43.89;100358.95;1446240;90;21503;-82
2023/04/18 08:23:08;;;;;;;7.60;2.05;;;;;;;17.94;41.95;100357.58;1446798;90;21418;-82
2023/04/18 08:25:35;;;;;;;6.62;2.00;;;;;;;18.07;40.62;100359.52;1450896;90;21364;-82
2023/04/18 08:28:01;;;;;;;4.80;2.17;;;;;;;18.18;41.05;100368.82;1445874;89;21463;-83
2023/04/18 08:30:27;;;;;;;3.42;1.77;;;;;;;18.18;39.28;100358.96;1430250;90;21385;-82
2023/04/18 08:32:53;;;;;;;6.67;1.85;;;;;;;18.25;40.32;100362.48;1443408;90;21355;-82
2023/04/18 08:35:20;;;;;;;7.87;1.85;;;;;;;18.35;40.20;100361.27;1437155;90;21595;-82
2023/04/18 08:37:46;;;;;;;7.55;2.60;;;;;;;18.44;39.76;100368.11;1441792;90;21333;-81
2023/04/18 08:40:13;;;;;;;4.97;2.15;;;;;;;18.53;36.93;100366.08;1434224;90;21371;-82
2023/04/18 08:42:43;;;;;;;8.80;1.87;;;;;;;18.57;36.62;100372.70;1442559;89;22341;-82
2023/04/18 08:45:13;;;;;;;5.72;2.52;;;;;;;18.64;38.75;100368.17;1447637;90;21393;-83
2023/04/18 08:47:41;;;;;;;2.70;1.87;;;;;;;18.79;38.99;100369.37;1444619;89;22663;-83
2023/04/18 08:50:09;;;;;;;4.03;1.98;;;;;;;18.73;37.12;100366.98;1449364;89;21355;-82
2023/04/18 08:52:38;;;;;;;5.75;2.17;;;;;;;18.82;37.80;100369.00;1452301;89;22251;-82
2023/04/18 08:55:08;;;;;;;4.53;2.37;;;;;;;18.89;37.99;100367.96;1446516;90;21585;-83
2023/04/18 08:57:35;;;;;;;3.42;1.98;;;;;;;18.87;35.51;100368.70;1446817;90;21548;-82
2023/04/18 09:00:10;;;;;;;4.20;2.12;;;;;;;18.89;36.30;100367.96;1445836;89;21326;-83
2023/04/18 09:02:43;;;;;;;3.37;1.75;;;;;;;18.91;36.67;100367.77;1448129;89;21570;-82
2023/04/18 09:05:20;;;;;;;7.03;2.60;;;;;;;19.03;37.11;100362.63;1445039;89;21363;-83
2023/04/18 09:07:48;;;;;;;7.37;2.22;;;;;;;19.21;36.68;100369.55;1444458;90;22400;-82
2023/04/18 09:10:35;;;;;;;6.08;2.47;;;;;;;19.29;36.35;100361.30;1442970;90;21445;-83
2023/04/18 09:13:03;;;;;;;11.80;1.80;;;;;;;19.31;35.42;100361.92;1447700;89;22258;-83
2023/04/18 09:15:29;;;;;;;7.08;2.08;;;;;;;19.44;35.61;100356.23;1443829;90;21378;-83
2023/04/18 09:18:01;;;;;;;3.47;1.67;;;;;;;19.58;36.14;100351.17;1449449;89;21320;-82
2023/04/18 09:20:37;;;;;;;4.28;1.50;;;;;;;19.55;33.65;100356.95;1446752;90;21364;-82
2023/04/18 09:23:15;;;;;;;3.65;1.52;;;;;;;19.56;34.20;100357.25;1449752;90;21541;-82
2023/04/18 09:25:48;;;;;;;3.35;1.82;;;;;;;19.70;35.94;100362.95;1449885;90;21459;-82
2023/04/18 09:28:32;;;;;;;6.50;1.92;;;;;;;19.75;34.67;100359.65;1432723;90;21334;-82
2023/04/18 09:31:11;;;;;;;3.12;2.02;;;;;;;19.74;34.57;100358.83;1444008;89;21518;-84
2023/04/18 09:33:43;;;;;;;4.85;2.10;;;;;;;19.86;34.30;100359.53;1447512;89;21429;-82
2023/04/18 09:36:22;;;;;;;5.00;2.10;;;;;;;19.99;35.69;100357.61;1449801;90;21452;-83
2023/04/18 09:38:51;;;;;;;10.28;2.25;;;;;;;20.11;34.41;100362.34;1446216;90;22213;-82
2023/04/18 09:41:18;;;;;;;8.53;2.50;;;;;;;20.18;34.57;100357.25;1450342;89;22451;-83
2023/04/18 09:43:45;;;;;;;5.85;1.92;;;;;;;20.29;34.43;100362.50;1442378;89;21415;-82
2023/04/18 09:46:13;;;;;;;13.53;4.67;;;;;;;20.24;31.07;100364.47;1445787;89;22251;-82
2023/04/18 09:48:40;;;;;;;4.30;1.90;;;;;;;20.27;32.98;100359.19;1447606;89;21571;-82
2023/04/18 09:51:11;;;;;;;8.20;2.40;;;;;;;20.27;31.60;100355.16;1446878;89;22420;-82
2023/04/18 09:53:40;;;;;;;9.03;1.98;;;;;;;20.32;33.70;100358.56;1440671;89;21584;-82
2023/04/18 09:56:11;;;;;;;3.27;1.90;;;;;;;20.36;33.15;100359.25;1444537;90;21522;-82
2023/04/18 09:58:41;;;;;;;6.30;2.92;;;;;;;20.33;31.23;100352.13;1440354;90;21414;-82
2023/04/18 10:01:07;;;;;;;11.07;3.60;;;;;;;20.26;32.41;100349.48;1445530;89;21431;-83
2023/04/18 10:03:42;;;;;;;7.40;2.20;;;;;;;20.14;32.65;100350.67;1447579;90;22792;-82
2023/04/18 10:06:10;;;;;;;7.42;2.40;;;;;;;20.32;33.32;100354.00;1444950;89;21364;-83
2023/04/18 10:08:38;;;;;;;6.62;2.10;;;;;;;20.44;31.16;100340.72;1440043;90;21445;-82
2023/04/18 10:11:05;;;;;;;4.83;1.87;;;;;;;20.44;31.16;100340.72;1444895;89;21429;-82
2023/04/18 10:13:34;;;;;;;10.75;2.10;;;;;;;20.56;32.35;100352.46;1447341;90;21489;-82
2023/04/18 10:16:01;;;;;;;7.97;2.55;;;;;;;20.67;32.12;100345.06;1442423;90;21363;-82
2023/04/18 10:18:27;;;;;;;14.03;3.45;;;;;;;20.54;31.04;100338.41;1445996;89;21370;-82
2023/04/18 10:21:03;;;;;;;6.80;1.95;;;;;;;20.62;31.43;100332.77;1442264;89;22220;-83
2023/04/18 10:23:35;;;;;;;10.45;2.70;;;;;;;20.62;31.43;100332.77;1449267;89;21825;-82
2023/04/18 10:26:09;;;;;;;7.87;2.42;;;;;;;20.65;32.25;100331.00;1442986;89;21334;-83
2023/04/18 10:28:56;;;;;;;6.22;1.80;;;;;;;20.70;31.78;100339.25;1446569;89;22360;-82
2023/04/18 10:31:25;;;;;;;6.20;1.70;;;;;;;20.86;32.53;100347.90;1442646;90;21275;-83
2023/04/18 10:33:59;;;;;;;6.30;2.15;;;;;;;20.95;30.00;100347.90;1434812;90;21533;-83
2023/04/18 10:36:27;;;;;;;8.28;3.00;;;;;;;21.10;32.11;100328.22;1446478;89;21415;-83
2023/04/18 10:38:59;;;;;;;6.08;2.15;;;;;;;21.23;31.40;100330.48;1447689;89;21503;-84
2023/04/18 10:41:31;;;;;;;9.97;2.40;;;;;;;21.34;31.46;100337.33;1439938;90;21580;-83
2023/04/18 10:44:16;;;;;;;11.85;2.10;;;;;;;21.26;31.40;100331.39;1444403;89;21445;-83
2023/04/18 10:46:51;;;;;;;6.65;2.70;;;;;;;21.25;30.43;100330.58;1440078;89;21643;-82
2023/04/18 10:49:26;;;;;;;4.65;2.35;;;;;;;21.10;30.14;100334.12;1443086;90;21407;-82
2023/04/18 10:51:59;;;;;;;9.58;2.30;;;;;;;21.25;31.53;100326.54;1431081;90;21466;-83
2023/04/18 10:54:54;;;;;;;8.38;2.27;;;;;;;20.94;29.72;100326.91;1448837;89;21385;-82
2023/04/18 10:57:20;;;;;;;5.80;2.70;;;;;;;21.10;30.95;100316.11;1446157;89;21408;-82
2023/04/18 10:59:50;;;;;;;7.35;2.40;;;;;;;20.91;30.71;100314.39;1448232;90;21490;-84
2023/04/18 11:02:29;;;;;;;5.17;1.90;;;;;;;21.12;31.70;100324.80;1443296;90;21335;-84
2023/04/18 11:05:00;;;;;;;4.97;2.25;;;;;;;21.32;31.68;100315.20;1412147;90;22200;-84
2023/04/18 11:07:44;;;;;;;5.85;2.10;;;;;;;21.68;31.73;100312.81;1437042;90;21490;-86
2023/04/18 11:10:11;;;;;;;12.45;2.15;;;;;;;21.77;28.93;100312.81;1449367;89;21482;-84
2023/04/18 11:12:39;;;;;;;5.80;1.82;;;;;;;21.86;30.25;100311.47;1443363;90;22355;-84
2023/04/18 11:15:23;;;;;;;11.75;2.15;;;;;;;21.35;26.98;100307.22;1433407;90;21355;-85
2023/04/18 11:17:57;;;;;;;8.33;2.30;;;;;;;20.62;27.09;100311.27;1444389;89;21422;-83
2023/04/18 11:20:24;;;;;;;3.25;2.33;;;;;;;19.83;29.17;100308.41;1445990;90;21489;-84
2023/04/18 11:22:57;;;;;;;9.08;2.52;;;;;;;20.39;31.24;100310.96;1449928;90;21850;-84
2023/04/18 11:25:35;;;;;;;3.20;1.60;;;;;;;20.85;31.60;100305.32;1446614;90;21820;-83
2023/04/18 11:28:03;;;;;;;3.87;2.20;;;;;;;21.19;31.42;100313.44;1449533;90;21448;-84
2023/04/18 11:30:37;;;;;;;6.20;2.02;;;;;;;21.62;31.90;100304.58;1441168;89;21541;-84
2023/04/18 11:33:08;;;;;;;5.72;3.02;;;;;;;21.77;30.43;100304.73;1447932;89;22303;-84
2023/04/18 11:42:45;;;;;;;3.45;2.12;;;;;;;21.79;30.79;100301.30;1447582;90;21481;-84
2023/04/18 11:45:15;;;;;;;6.97;2.33;;;;;;;22.18;30.69;100292.45;1443438;90;22353;-84
2023/04/18 11:47:46;;;;;;;;;;;;;;;22.51;30.68;100294.19;1429258;90;22421;-85
2023/04/18 11:50:13;;;;;;;6.28;1.98;;;;;;;22.82;28.56;100283.38;1449723;89;20315;-85
2023/04/18 11:52:41;;;;;;;9.48;2.52;;;;;;;22.68;27.67;100288.14;1429261;90;22536;-86
2023/04/18 11:55:23;;;;;;;4.97;2.10;;;;;;;22.62;29.75;100285.03;1436161;90;21570;-86